createdAt,value
2017-07-05T00:00:26.970Z,0
2017-07-05T00:01:07.551Z,0
2017-07-05T00:01:48.125Z,0
2017-07-05T00:02:28.773Z,0
2017-07-05T00:03:09.357Z,0
2017-07-05T00:03:49.925Z,0
2017-07-05T00:04:30.505Z,0
2017-07-05T00:05:11.088Z,0
2017-07-05T00:05:51.666Z,0
2017-07-05T00:06:32.247Z,0
2017-07-05T00:07:12.821Z,0
2017-07-05T00:07:53.398Z,0
2017-07-05T00:08:33.975Z,0
2017-07-05T00:09:14.539Z,0
2017-07-05T00:09:55.107Z,0
2017-07-05T00:10:35.687Z,0
2017-07-05T00:11:16.270Z,0
2017-07-05T00:11:56.880Z,0
2017-07-05T00:12:37.417Z,0
2017-07-05T00:13:17.985Z,0
2017-07-05T00:13:58.559Z,0
2017-07-05T00:14:39.120Z,0
2017-07-05T00:15:19.700Z,0
2017-07-05T00:16:00.294Z,0
2017-07-05T00:16:40.873Z,0
2017-07-05T00:17:21.443Z,0
2017-07-05T00:18:02.023Z,0
2017-07-05T00:18:42.577Z,0
2017-07-05T00:19:23.152Z,0
2017-07-05T00:20:03.724Z,0
2017-07-05T00:20:44.289Z,0
2017-07-05T00:21:24.868Z,0
2017-07-05T00:22:05.452Z,0
2017-07-05T00:22:46.025Z,0
2017-07-05T00:23:26.589Z,0
2017-07-05T00:24:07.154Z,0
2017-07-05T00:24:47.718Z,0
2017-07-05T00:25:28.370Z,0
2017-07-05T00:26:08.960Z,0
2017-07-05T00:26:49.540Z,0
2017-07-05T00:27:30.100Z,0
2017-07-05T00:28:10.700Z,0
2017-07-05T00:28:51.282Z,0
2017-07-05T00:29:31.855Z,0
2017-07-05T00:30:12.482Z,0
2017-07-05T00:30:53.056Z,0
2017-07-05T00:31:33.666Z,0
2017-07-05T00:32:14.260Z,0
2017-07-05T00:32:54.882Z,0
2017-07-05T00:33:35.470Z,0
2017-07-05T00:34:16.058Z,0
2017-07-05T00:34:56.644Z,0
2017-07-05T00:35:37.214Z,0
2017-07-05T00:36:17.785Z,0
2017-07-05T00:36:58.373Z,0
2017-07-05T00:37:38.960Z,0
2017-07-05T00:38:19.557Z,0
2017-07-05T00:39:00.135Z,0
2017-07-05T00:39:40.722Z,0
2017-07-05T00:40:21.306Z,0
2017-07-05T00:41:01.872Z,0
2017-07-05T00:41:42.453Z,0
2017-07-05T00:42:23.028Z,0
2017-07-05T00:43:03.582Z,0
2017-07-05T00:43:44.163Z,0
2017-07-05T00:44:24.746Z,0
2017-07-05T00:45:05.322Z,0
2017-07-05T00:45:45.891Z,0
2017-07-05T00:46:26.467Z,0
2017-07-05T00:47:07.060Z,0
2017-07-05T00:47:47.629Z,0
2017-07-05T00:48:28.207Z,0
2017-07-05T00:49:08.763Z,0
2017-07-05T00:49:49.345Z,0
2017-07-05T00:50:29.917Z,0
2017-07-05T00:51:10.494Z,0
2017-07-05T00:51:51.056Z,0
2017-07-05T00:52:31.623Z,0
2017-07-05T00:53:12.183Z,0
2017-07-05T00:53:52.753Z,0
2017-07-05T00:54:33.313Z,0
2017-07-05T00:55:13.895Z,0
2017-07-05T00:55:54.477Z,0
2017-07-05T00:56:35.040Z,0
2017-07-05T00:57:15.616Z,0
2017-07-05T00:57:56.186Z,0
2017-07-05T00:58:36.764Z,0
2017-07-05T00:59:17.340Z,0
2017-07-05T00:59:57.909Z,0
2017-07-05T01:00:38.472Z,0
2017-07-05T01:01:19.034Z,0
2017-07-05T01:01:59.607Z,0
2017-07-05T01:02:40.173Z,0
2017-07-05T01:03:20.730Z,0
2017-07-05T01:04:01.303Z,0
2017-07-05T01:04:41.882Z,0
2017-07-05T01:05:22.449Z,0
2017-07-05T01:06:03.132Z,0
2017-07-05T01:06:43.720Z,0
2017-07-05T01:07:24.282Z,0
2017-07-05T01:08:04.870Z,0
2017-07-05T01:08:45.446Z,0
2017-07-05T01:09:26.029Z,0
2017-07-05T01:10:06.591Z,0
2017-07-05T01:10:47.170Z,0
2017-07-05T01:11:27.746Z,0
2017-07-05T01:12:08.319Z,0
2017-07-05T01:12:48.885Z,0
2017-07-05T01:13:29.455Z,0
2017-07-05T01:14:10.019Z,0
2017-07-05T01:14:50.621Z,0
2017-07-05T01:15:31.189Z,0
2017-07-05T01:16:11.772Z,0
2017-07-05T01:16:52.342Z,0
2017-07-05T01:17:32.913Z,0
2017-07-05T01:18:13.484Z,0
2017-07-05T01:18:54.051Z,0
2017-07-05T01:19:34.623Z,0
2017-07-05T01:20:15.196Z,0
2017-07-05T01:20:55.768Z,0
2017-07-05T01:21:36.332Z,0
2017-07-05T01:22:16.927Z,0
2017-07-05T01:22:57.507Z,0
2017-07-05T01:23:38.077Z,0
2017-07-05T01:24:18.641Z,0
2017-07-05T01:24:59.221Z,0
2017-07-05T01:25:39.773Z,0
2017-07-05T01:26:20.359Z,0
2017-07-05T01:27:00.926Z,0
2017-07-05T01:27:41.486Z,0
2017-07-05T01:28:22.075Z,0
2017-07-05T01:29:02.691Z,0
2017-07-05T01:29:43.254Z,0
2017-07-05T01:30:23.829Z,0
2017-07-05T01:31:04.394Z,0
2017-07-05T01:31:44.958Z,0
2017-07-05T01:32:25.541Z,0
2017-07-05T01:33:06.130Z,0
2017-07-05T01:33:46.706Z,0
2017-07-05T01:34:27.270Z,0
2017-07-05T01:35:07.876Z,0
2017-07-05T01:35:48.461Z,0
2017-07-05T01:36:29.033Z,0
2017-07-05T01:37:09.642Z,0
2017-07-05T01:37:50.215Z,0
2017-07-05T01:38:30.789Z,0
2017-07-05T01:39:11.382Z,0
2017-07-05T01:39:51.959Z,0
2017-07-05T01:40:32.578Z,0
2017-07-05T01:41:13.152Z,0
2017-07-05T01:41:53.726Z,0
2017-07-05T01:42:34.309Z,0
2017-07-05T01:43:14.879Z,0
2017-07-05T01:43:55.456Z,0
2017-07-05T01:44:36.022Z,0
2017-07-05T01:45:16.593Z,0
2017-07-05T01:45:57.186Z,0
2017-07-05T01:46:37.765Z,0
2017-07-05T01:47:18.333Z,0
2017-07-05T01:47:58.902Z,0
2017-07-05T01:48:39.479Z,0
2017-07-05T01:49:20.054Z,0
2017-07-05T01:50:00.633Z,0
2017-07-05T01:50:41.203Z,0
2017-07-05T01:51:21.794Z,0
2017-07-05T01:52:02.363Z,0
2017-07-05T01:52:42.933Z,0
2017-07-05T01:53:23.520Z,0
2017-07-05T01:54:04.090Z,0
2017-07-05T01:54:44.704Z,0
2017-07-05T01:55:25.287Z,0
2017-07-05T01:56:05.856Z,0
2017-07-05T01:56:46.422Z,0
2017-07-05T01:57:27.006Z,0
2017-07-05T01:58:07.567Z,0
2017-07-05T01:58:48.155Z,0
2017-07-05T01:59:28.724Z,0
2017-07-05T02:00:09.299Z,0
2017-07-05T02:00:49.890Z,0
2017-07-05T02:01:30.483Z,0
2017-07-05T02:02:11.046Z,0
2017-07-05T02:02:51.616Z,0
2017-07-05T02:03:32.194Z,0
2017-07-05T02:04:12.764Z,0
2017-07-05T02:04:53.341Z,0
2017-07-05T02:05:33.907Z,0
2017-07-05T02:06:14.481Z,0
2017-07-05T02:06:55.054Z,0
2017-07-05T02:07:35.647Z,0
2017-07-05T02:08:16.213Z,0
2017-07-05T02:08:56.794Z,0
2017-07-05T02:09:37.383Z,0
2017-07-05T02:10:17.943Z,0
2017-07-05T02:10:58.515Z,0
2017-07-05T02:11:39.081Z,0
2017-07-05T02:12:19.648Z,0
2017-07-05T02:13:00.276Z,0
2017-07-05T02:13:40.787Z,0
2017-07-05T02:14:21.480Z,0
2017-07-05T02:15:02.072Z,0
2017-07-05T02:15:42.634Z,0
2017-07-05T02:16:23.208Z,0
2017-07-05T02:17:03.784Z,0
2017-07-05T02:17:44.354Z,0
2017-07-05T02:18:24.925Z,4
2017-07-05T02:19:05.493Z,4
2017-07-05T02:19:46.079Z,4
2017-07-05T02:20:26.655Z,4
2017-07-05T02:21:07.219Z,4
2017-07-05T02:21:47.778Z,0
2017-07-05T02:22:28.351Z,0
2017-07-05T02:23:08.925Z,4
2017-07-05T02:23:49.501Z,4
2017-07-05T02:24:30.076Z,4
2017-07-05T02:25:10.638Z,4
2017-07-05T02:25:51.212Z,4
2017-07-05T02:26:31.770Z,4
2017-07-05T02:27:12.341Z,4
2017-07-05T02:27:52.911Z,8
2017-07-05T02:28:33.473Z,4
2017-07-05T02:29:14.072Z,4
2017-07-05T02:29:54.653Z,4
2017-07-05T02:30:35.226Z,4
2017-07-05T02:31:15.794Z,8
2017-07-05T02:31:56.368Z,8
2017-07-05T02:32:36.932Z,8
2017-07-05T02:33:17.520Z,8
2017-07-05T02:33:58.118Z,8
2017-07-05T02:34:38.683Z,8
2017-07-05T02:35:19.254Z,8
2017-07-05T02:35:59.822Z,8
2017-07-05T02:36:40.440Z,12
2017-07-05T02:37:21.019Z,8
2017-07-05T02:38:01.590Z,8
2017-07-05T02:38:42.199Z,12
2017-07-05T02:39:22.747Z,12
2017-07-05T02:40:03.319Z,16
2017-07-05T02:40:43.882Z,16
2017-07-05T02:41:24.450Z,16
2017-07-05T02:42:05.028Z,20
2017-07-05T02:42:45.590Z,24
2017-07-05T02:43:26.232Z,24
2017-07-05T02:44:06.885Z,28
2017-07-05T02:44:47.455Z,28
2017-07-05T02:45:28.026Z,32
2017-07-05T02:46:08.592Z,28
2017-07-05T02:46:49.193Z,32
2017-07-05T02:47:29.803Z,36
2017-07-05T02:48:10.397Z,40
2017-07-05T02:48:50.959Z,40
2017-07-05T02:49:31.542Z,44
2017-07-05T02:50:12.133Z,40
2017-07-05T02:50:52.700Z,44
2017-07-05T02:51:33.269Z,44
2017-07-05T02:52:13.843Z,48
2017-07-05T02:52:54.408Z,44
2017-07-05T02:53:35.010Z,44
2017-07-05T02:54:15.591Z,48
2017-07-05T02:54:56.160Z,48
2017-07-05T02:55:36.740Z,48
2017-07-05T02:56:17.314Z,48
2017-07-05T02:56:57.880Z,52
2017-07-05T02:57:38.492Z,52
2017-07-05T02:58:19.041Z,56
2017-07-05T02:58:59.636Z,56
2017-07-05T02:59:40.222Z,56
2017-07-05T03:00:20.793Z,60
2017-07-05T03:01:01.370Z,64
2017-07-05T03:01:41.956Z,64
2017-07-05T03:02:22.524Z,68
2017-07-05T03:03:03.135Z,68
2017-07-05T03:03:43.687Z,72
2017-07-05T03:04:24.258Z,72
2017-07-05T03:05:04.829Z,76
2017-07-05T03:05:45.393Z,80
2017-07-05T03:06:25.973Z,84
2017-07-05T03:07:06.559Z,84
2017-07-05T03:07:47.149Z,88
2017-07-05T03:08:27.766Z,92
2017-07-05T03:09:08.326Z,100
2017-07-05T03:09:48.914Z,108
2017-07-05T03:10:29.506Z,108
2017-07-05T03:11:10.083Z,112
2017-07-05T03:11:50.704Z,116
2017-07-05T03:12:31.289Z,120
2017-07-05T03:13:11.909Z,120
2017-07-05T03:13:52.480Z,124
2017-07-05T03:14:33.054Z,128
2017-07-05T03:15:13.661Z,136
2017-07-05T03:15:54.242Z,140
2017-07-05T03:16:34.817Z,152
2017-07-05T03:17:15.386Z,164
2017-07-05T03:17:55.949Z,172
2017-07-05T03:18:36.518Z,184
2017-07-05T03:19:17.095Z,188
2017-07-05T03:19:57.673Z,192
2017-07-05T03:20:38.228Z,188
2017-07-05T03:21:18.802Z,184
2017-07-05T03:21:59.380Z,180
2017-07-05T03:22:39.947Z,184
2017-07-05T03:23:20.515Z,192
2017-07-05T03:24:01.074Z,204
2017-07-05T03:24:41.639Z,224
2017-07-05T03:25:22.220Z,244
2017-07-05T03:26:02.797Z,268
2017-07-05T03:26:43.365Z,288
2017-07-05T03:27:23.961Z,304
2017-07-05T03:28:04.554Z,316
2017-07-05T03:28:45.126Z,328
2017-07-05T03:29:25.703Z,332
2017-07-05T03:30:06.274Z,332
2017-07-05T03:30:46.880Z,328
2017-07-05T03:31:27.493Z,320
2017-07-05T03:32:08.074Z,316
2017-07-05T03:32:48.687Z,320
2017-07-05T03:33:29.272Z,324
2017-07-05T03:34:09.832Z,328
2017-07-05T03:34:50.420Z,332
2017-07-05T03:35:31.033Z,328
2017-07-05T03:36:11.612Z,332
2017-07-05T03:36:52.198Z,344
2017-07-05T03:37:32.767Z,352
2017-07-05T03:38:13.342Z,356
2017-07-05T03:38:53.904Z,360
2017-07-05T03:39:34.472Z,356
2017-07-05T03:40:15.053Z,348
2017-07-05T03:40:55.665Z,344
2017-07-05T03:41:36.285Z,348
2017-07-05T03:42:16.861Z,352
2017-07-05T03:42:57.464Z,352
2017-07-05T03:43:38.049Z,360
2017-07-05T03:44:18.620Z,372
2017-07-05T03:44:59.214Z,380
2017-07-05T03:45:39.806Z,388
2017-07-05T03:46:20.428Z,380
2017-07-05T03:47:00.993Z,376
2017-07-05T03:47:41.573Z,368
2017-07-05T03:48:22.160Z,364
2017-07-05T03:49:02.799Z,368
2017-07-05T03:49:43.380Z,376
2017-07-05T03:50:23.951Z,392
2017-07-05T03:51:04.506Z,408
2017-07-05T03:51:45.075Z,424
2017-07-05T03:52:25.658Z,444
2017-07-05T03:53:06.244Z,460
2017-07-05T03:53:46.833Z,472
2017-07-05T03:54:27.414Z,480
2017-07-05T03:55:07.981Z,500
2017-07-05T03:55:48.559Z,528
2017-07-05T03:56:29.119Z,568
2017-07-05T03:57:09.685Z,608
2017-07-05T03:57:50.282Z,644
2017-07-05T03:58:30.849Z,668
2017-07-05T03:59:11.427Z,696
2017-07-05T03:59:51.994Z,704
2017-07-05T04:00:32.578Z,712
2017-07-05T04:01:13.143Z,748
2017-07-05T04:01:53.702Z,784
2017-07-05T04:02:34.262Z,780
2017-07-05T04:03:14.835Z,732
2017-07-05T04:03:55.409Z,672
2017-07-05T04:04:35.979Z,620
2017-07-05T04:05:16.553Z,588
2017-07-05T04:05:57.134Z,580
2017-07-05T04:06:37.700Z,616
2017-07-05T04:07:18.284Z,644
2017-07-05T04:07:58.854Z,672
2017-07-05T04:08:39.409Z,696
2017-07-05T04:09:19.984Z,728
2017-07-05T04:10:00.578Z,768
2017-07-05T04:10:41.160Z,796
2017-07-05T04:11:21.722Z,804
2017-07-05T04:12:02.288Z,804
2017-07-05T04:12:42.858Z,784
2017-07-05T04:13:23.420Z,764
2017-07-05T04:14:04.007Z,736
2017-07-05T04:14:44.573Z,708
2017-07-05T04:15:25.148Z,668
2017-07-05T04:16:05.725Z,612
2017-07-05T04:16:46.307Z,564
2017-07-05T04:17:26.902Z,516
2017-07-05T04:18:07.466Z,460
2017-07-05T04:18:48.081Z,428
2017-07-05T04:19:28.645Z,408
2017-07-05T04:20:09.227Z,412
2017-07-05T04:20:49.804Z,424
2017-07-05T04:21:30.400Z,456
2017-07-05T04:22:10.975Z,480
2017-07-05T04:22:51.547Z,524
2017-07-05T04:23:32.126Z,596
2017-07-05T04:24:12.695Z,676
2017-07-05T04:24:53.270Z,752
2017-07-05T04:25:33.835Z,820
2017-07-05T04:26:14.899Z,856
2017-07-05T04:26:55.472Z,860
2017-07-05T04:27:36.036Z,832
2017-07-05T04:28:16.638Z,784
2017-07-05T04:28:57.202Z,736
2017-07-05T04:29:37.797Z,688
2017-07-05T04:30:18.418Z,652
2017-07-05T04:30:59.022Z,632
2017-07-05T04:31:39.597Z,620
2017-07-05T04:32:20.170Z,612
2017-07-05T04:33:00.742Z,620
2017-07-05T04:33:41.310Z,640
2017-07-05T04:34:21.924Z,644
2017-07-05T04:35:02.453Z,648
2017-07-05T04:35:43.013Z,664
2017-07-05T04:36:23.590Z,696
2017-07-05T04:37:04.156Z,756
2017-07-05T04:37:44.753Z,828
2017-07-05T04:38:25.318Z,908
2017-07-05T04:39:05.887Z,1028
2017-07-05T04:39:46.516Z,1188
2017-07-05T04:40:27.134Z,1392
2017-07-05T04:41:07.791Z,1544
2017-07-05T04:41:48.403Z,1592
2017-07-05T04:42:28.966Z,1544
2017-07-05T04:43:09.546Z,1388
2017-07-05T04:43:50.121Z,1200
2017-07-05T04:44:30.693Z,1012
2017-07-05T04:45:11.251Z,868
2017-07-05T04:45:51.832Z,784
2017-07-05T04:46:32.418Z,756
2017-07-05T04:47:12.991Z,732
2017-07-05T04:47:53.575Z,684
2017-07-05T04:48:34.168Z,652
2017-07-05T04:49:14.761Z,636
2017-07-05T04:49:55.354Z,636
2017-07-05T04:50:35.930Z,628
2017-07-05T04:51:16.488Z,616
2017-07-05T04:51:57.069Z,604
2017-07-05T04:52:37.664Z,596
2017-07-05T04:53:18.253Z,600
2017-07-05T04:53:58.817Z,612
2017-07-05T04:54:39.396Z,632
2017-07-05T04:55:19.987Z,664
2017-07-05T04:56:00.554Z,696
2017-07-05T04:56:41.124Z,724
2017-07-05T04:57:21.721Z,748
2017-07-05T04:58:02.294Z,788
2017-07-05T04:58:42.860Z,832
2017-07-05T04:59:23.483Z,884
2017-07-05T05:00:04.141Z,940
2017-07-05T05:00:44.690Z,1000
2017-07-05T05:01:25.284Z,1040
2017-07-05T05:02:05.861Z,1072
2017-07-05T05:02:46.452Z,1084
2017-07-05T05:03:27.029Z,1080
2017-07-05T05:04:07.626Z,1076
2017-07-05T05:04:48.241Z,1040
2017-07-05T05:05:28.817Z,988
2017-07-05T05:06:09.393Z,948
2017-07-05T05:06:49.995Z,916
2017-07-05T05:07:30.587Z,916
2017-07-05T05:08:11.145Z,940
2017-07-05T05:08:51.749Z,964
2017-07-05T05:09:32.320Z,948
2017-07-05T05:10:12.926Z,920
2017-07-05T05:10:53.544Z,896
2017-07-05T05:11:34.141Z,868
2017-07-05T05:12:14.730Z,852
2017-07-05T05:12:55.306Z,832
2017-07-05T05:13:35.894Z,808
2017-07-05T05:14:16.471Z,776
2017-07-05T05:14:57.039Z,740
2017-07-05T05:15:37.611Z,704
2017-07-05T05:16:18.194Z,668
2017-07-05T05:16:58.769Z,644
2017-07-05T05:17:39.342Z,632
2017-07-05T05:18:19.929Z,640
2017-07-05T05:19:00.566Z,652
2017-07-05T05:19:41.132Z,656
2017-07-05T05:20:21.703Z,656
2017-07-05T05:21:02.294Z,648
2017-07-05T05:21:42.869Z,624
2017-07-05T05:22:23.454Z,608
2017-07-05T05:23:04.056Z,600
2017-07-05T05:23:44.626Z,600
2017-07-05T05:24:25.233Z,596
2017-07-05T05:25:05.812Z,588
2017-07-05T05:25:46.400Z,576
2017-07-05T05:26:26.996Z,560
2017-07-05T05:27:07.570Z,552
2017-07-05T05:27:48.168Z,556
2017-07-05T05:28:28.762Z,560
2017-07-05T05:29:09.354Z,564
2017-07-05T05:29:49.998Z,572
2017-07-05T05:30:30.598Z,576
2017-07-05T05:31:11.170Z,576
2017-07-05T05:31:51.725Z,572
2017-07-05T05:32:32.320Z,572
2017-07-05T05:33:12.865Z,572
2017-07-05T05:33:53.479Z,580
2017-07-05T05:34:34.054Z,588
2017-07-05T05:35:14.636Z,592
2017-07-05T05:35:55.208Z,600
2017-07-05T05:36:35.788Z,588
2017-07-05T05:37:16.365Z,572
2017-07-05T05:37:56.948Z,552
2017-07-05T05:38:37.518Z,540
2017-07-05T05:39:18.129Z,544
2017-07-05T05:39:58.719Z,552
2017-07-05T05:40:39.293Z,572
2017-07-05T05:41:19.865Z,604
2017-07-05T05:42:00.460Z,664
2017-07-05T05:42:41.019Z,740
2017-07-05T05:43:21.590Z,832
2017-07-05T05:44:02.176Z,908
2017-07-05T05:44:42.782Z,944
2017-07-05T05:45:23.397Z,964
2017-07-05T05:46:03.929Z,976
2017-07-05T05:46:44.518Z,968
2017-07-05T05:47:25.101Z,952
2017-07-05T05:48:05.682Z,940
2017-07-05T05:48:46.273Z,912
2017-07-05T05:49:26.854Z,884
2017-07-05T05:50:07.437Z,872
2017-07-05T05:50:48.003Z,888
2017-07-05T05:51:28.588Z,928
2017-07-05T05:52:09.143Z,952
2017-07-05T05:52:49.712Z,968
2017-07-05T05:53:30.274Z,960
2017-07-05T05:54:10.848Z,948
2017-07-05T05:54:51.433Z,908
2017-07-05T05:55:32.001Z,856
2017-07-05T05:56:12.569Z,808
2017-07-05T05:56:53.152Z,792
2017-07-05T05:57:33.712Z,776
2017-07-05T05:58:14.284Z,748
2017-07-05T05:58:54.856Z,728
2017-07-05T05:59:35.440Z,700
2017-07-05T06:00:16.004Z,656
2017-07-05T06:00:56.574Z,620
2017-07-05T06:01:37.153Z,596
2017-07-05T06:02:17.725Z,588
2017-07-05T06:02:58.310Z,584
2017-07-05T06:03:38.885Z,588
2017-07-05T06:04:19.477Z,592
2017-07-05T06:05:00.040Z,600
2017-07-05T06:05:40.619Z,628
2017-07-05T06:06:21.187Z,656
2017-07-05T06:07:01.760Z,676
2017-07-05T06:07:42.334Z,688
2017-07-05T06:08:22.919Z,696
2017-07-05T06:09:03.498Z,700
2017-07-05T06:09:44.069Z,720
2017-07-05T06:10:24.674Z,756
2017-07-05T06:11:05.245Z,784
2017-07-05T06:11:45.813Z,804
2017-07-05T06:12:26.383Z,812
2017-07-05T06:13:06.959Z,804
2017-07-05T06:13:47.529Z,780
2017-07-05T06:14:28.100Z,764
2017-07-05T06:15:08.681Z,744
2017-07-05T06:15:49.253Z,728
2017-07-05T06:16:29.815Z,704
2017-07-05T06:17:10.389Z,688
2017-07-05T06:17:50.947Z,676
2017-07-05T06:18:31.513Z,660
2017-07-05T06:19:12.102Z,652
2017-07-05T06:19:52.672Z,636
2017-07-05T06:20:33.241Z,636
2017-07-05T06:21:13.804Z,632
2017-07-05T06:21:54.428Z,632
2017-07-05T06:22:34.986Z,644
2017-07-05T06:23:15.564Z,660
2017-07-05T06:23:56.155Z,676
2017-07-05T06:24:36.715Z,672
2017-07-05T06:25:17.298Z,660
2017-07-05T06:25:57.881Z,644
2017-07-05T06:26:38.470Z,640
2017-07-05T06:27:19.066Z,656
2017-07-05T06:27:59.633Z,684
2017-07-05T06:28:40.200Z,708
2017-07-05T06:29:20.763Z,732
2017-07-05T06:30:01.342Z,756
2017-07-05T06:30:41.907Z,772
2017-07-05T06:31:22.486Z,768
2017-07-05T06:32:03.077Z,748
2017-07-05T06:32:43.655Z,724
2017-07-05T06:33:24.237Z,724
2017-07-05T06:34:04.825Z,752
2017-07-05T06:34:45.393Z,768
2017-07-05T06:35:25.972Z,772
2017-07-05T06:36:06.538Z,776
2017-07-05T06:36:47.108Z,804
2017-07-05T06:37:27.701Z,860
2017-07-05T06:38:08.282Z,948
2017-07-05T06:38:48.870Z,1052
2017-07-05T06:39:29.431Z,1120
2017-07-05T06:40:10.025Z,1144
2017-07-05T06:40:50.605Z,1112
2017-07-05T06:41:31.193Z,1016
2017-07-05T06:42:11.767Z,908
2017-07-05T06:42:52.354Z,868
2017-07-05T06:43:32.943Z,912
2017-07-05T06:44:13.512Z,1000
2017-07-05T06:44:54.092Z,1108
2017-07-05T06:45:34.653Z,1208
2017-07-05T06:46:15.257Z,1268
2017-07-05T06:46:55.822Z,1280
2017-07-05T06:47:36.396Z,1256
2017-07-05T06:48:17.000Z,1220
2017-07-05T06:48:57.554Z,1200
2017-07-05T06:49:38.124Z,1224
2017-07-05T06:50:18.700Z,1336
2017-07-05T06:50:59.256Z,1528
2017-07-05T06:51:39.818Z,1720
2017-07-05T06:52:20.387Z,1804
2017-07-05T06:53:00.957Z,1808
2017-07-05T06:53:41.531Z,1776
2017-07-05T06:54:22.101Z,1744
2017-07-05T06:55:02.674Z,1732
2017-07-05T06:55:43.260Z,1712
2017-07-05T06:56:23.836Z,1676
2017-07-05T06:57:04.430Z,1628
2017-07-05T06:57:45.002Z,1568
2017-07-05T06:58:25.607Z,1524
2017-07-05T06:59:06.177Z,1508
2017-07-05T06:59:46.746Z,1500
2017-07-05T07:00:27.318Z,1464
2017-07-05T07:01:07.890Z,1424
2017-07-05T07:01:48.475Z,1388
2017-07-05T07:02:29.078Z,1340
2017-07-05T07:03:09.649Z,1256
2017-07-05T07:03:50.231Z,1172
2017-07-05T07:04:30.821Z,1116
2017-07-05T07:05:11.415Z,1140
2017-07-05T07:05:51.989Z,1224
2017-07-05T07:06:32.553Z,1332
2017-07-05T07:07:13.169Z,1376
2017-07-05T07:07:53.682Z,1364
2017-07-05T07:08:34.265Z,1344
2017-07-05T07:09:14.839Z,1300
2017-07-05T07:09:55.405Z,1268
2017-07-05T07:10:35.982Z,1284
2017-07-05T07:11:16.560Z,1316
2017-07-05T07:11:57.145Z,1324
2017-07-05T07:12:37.715Z,1300
2017-07-05T07:13:18.278Z,1244
2017-07-05T07:13:58.879Z,1260
2017-07-05T07:14:39.463Z,1328
2017-07-05T07:15:20.042Z,1356
2017-07-05T07:16:00.631Z,1344
2017-07-05T07:16:41.232Z,1316
2017-07-05T07:17:21.790Z,1292
2017-07-05T07:18:02.391Z,1256
2017-07-05T07:18:42.950Z,1236
2017-07-05T07:19:23.523Z,1232
2017-07-05T07:20:04.099Z,1256
2017-07-05T07:20:44.669Z,1296
2017-07-05T07:21:25.230Z,1320
2017-07-05T07:22:05.810Z,1320
2017-07-05T07:22:46.384Z,1292
2017-07-05T07:23:26.969Z,1216
2017-07-05T07:24:07.549Z,1168
2017-07-05T07:24:48.117Z,1124
2017-07-05T07:25:28.694Z,1108
2017-07-05T07:26:09.260Z,1096
2017-07-05T07:26:49.849Z,1108
2017-07-05T07:27:30.446Z,1112
2017-07-05T07:28:11.021Z,1140
2017-07-05T07:28:51.590Z,1140
2017-07-05T07:29:32.164Z,1104
2017-07-05T07:30:12.758Z,1080
2017-07-05T07:30:53.326Z,1124
2017-07-05T07:31:33.915Z,1204
2017-07-05T07:32:14.502Z,1236
2017-07-05T07:32:55.074Z,1216
2017-07-05T07:33:35.673Z,1176
2017-07-05T07:34:16.303Z,1196
2017-07-05T07:34:56.852Z,1212
2017-07-05T07:35:37.410Z,1208
2017-07-05T07:36:17.983Z,1240
2017-07-05T07:36:58.557Z,1280
2017-07-05T07:37:39.137Z,1324
2017-07-05T07:38:19.705Z,1328
2017-07-05T07:39:00.280Z,1284
2017-07-05T07:39:40.832Z,1228
2017-07-05T07:40:21.436Z,1236
2017-07-05T07:41:01.995Z,1276
2017-07-05T07:41:42.614Z,1296
2017-07-05T07:42:23.174Z,1360
2017-07-05T07:43:03.761Z,1444
2017-07-05T07:43:44.325Z,1552
2017-07-05T07:44:24.909Z,1632
2017-07-05T07:45:05.511Z,1672
2017-07-05T07:45:46.078Z,1696
2017-07-05T07:46:26.667Z,1716
2017-07-05T07:47:07.247Z,1768
2017-07-05T07:47:47.839Z,1916
2017-07-05T07:48:29.179Z,2084
2017-07-05T07:49:09.817Z,2196
2017-07-05T07:49:50.402Z,2248
2017-07-05T07:50:30.997Z,2220
2017-07-05T07:51:11.577Z,2104
2017-07-05T07:51:52.267Z,2004
2017-07-05T07:52:33.103Z,2016
2017-07-05T07:53:13.664Z,2132
2017-07-05T07:53:54.263Z,2240
2017-07-05T07:54:35.070Z,2224
2017-07-05T07:55:16.017Z,2020
2017-07-05T07:55:56.583Z,1784
2017-07-05T07:56:37.148Z,1664
2017-07-05T07:57:17.734Z,1612
2017-07-05T07:57:58.296Z,1588
2017-07-05T07:58:38.874Z,1584
2017-07-05T07:59:19.455Z,1548
2017-07-05T08:00:00.112Z,1512
2017-07-05T08:00:40.663Z,1520
2017-07-05T08:01:21.263Z,1584
2017-07-05T08:02:01.834Z,1672
2017-07-05T08:02:42.433Z,1728
2017-07-05T08:03:23.050Z,1736
2017-07-05T08:04:03.781Z,1652
2017-07-05T08:04:44.585Z,1512
2017-07-05T08:05:25.167Z,1372
2017-07-05T08:06:05.904Z,1288
2017-07-05T08:06:46.611Z,1312
2017-07-05T08:07:28.716Z,1444
2017-07-05T08:08:09.319Z,1596
2017-07-05T08:08:49.975Z,1716
2017-07-05T08:09:30.558Z,1812
2017-07-05T08:10:11.178Z,1912
2017-07-05T08:10:52.093Z,1964
2017-07-05T08:11:32.657Z,2012
2017-07-05T08:12:13.213Z,2096
2017-07-05T08:12:54.004Z,2252
2017-07-05T08:13:35.596Z,2392
2017-07-05T08:14:16.181Z,2484
2017-07-05T08:14:56.763Z,2552
2017-07-05T08:15:37.556Z,2604
2017-07-05T08:16:19.212Z,2584
2017-07-05T08:17:00.402Z,2544
2017-07-05T08:17:41.229Z,2532
2017-07-05T08:18:23.196Z,2616
2017-07-05T08:19:02.902Z,2768
2017-07-05T08:19:43.552Z,2960
2017-07-05T08:20:24.389Z,3172
2017-07-05T08:21:05.055Z,3356
2017-07-05T08:21:45.612Z,3644
2017-07-05T08:22:26.195Z,4028
2017-07-05T08:23:06.827Z,4428
2017-07-05T08:23:47.428Z,4896
2017-07-05T08:24:27.999Z,4964
2017-07-05T08:25:08.589Z,4884
2017-07-05T08:25:49.159Z,4856
2017-07-05T08:26:29.727Z,4788
2017-07-05T08:27:10.296Z,4644
2017-07-05T08:27:50.889Z,4732
2017-07-05T08:28:31.480Z,4904
2017-07-05T08:29:12.082Z,4960
2017-07-05T08:29:52.641Z,5260
2017-07-05T08:30:33.210Z,5584
2017-07-05T08:31:13.778Z,5708
2017-07-05T08:31:54.356Z,5740
2017-07-05T08:32:34.933Z,5632
2017-07-05T08:33:15.574Z,5484
2017-07-05T08:33:56.107Z,5188
2017-07-05T08:34:36.676Z,5012
2017-07-05T08:35:17.245Z,4936
2017-07-05T08:35:57.799Z,5024
2017-07-05T08:36:38.393Z,5328
2017-07-05T08:37:18.967Z,5460
2017-07-05T08:37:59.541Z,5312
2017-07-05T08:38:40.236Z,5160
2017-07-05T08:39:20.818Z,5056
2017-07-05T08:40:01.389Z,4956
2017-07-05T08:40:41.966Z,4904
2017-07-05T08:41:22.556Z,5064
2017-07-05T08:42:03.195Z,5332
2017-07-05T08:42:43.760Z,5708
2017-07-05T08:43:24.323Z,6092
2017-07-05T08:44:04.881Z,6736
2017-07-05T08:44:45.453Z,7776
2017-07-05T08:45:26.035Z,8640
2017-07-05T08:46:06.637Z,8948
2017-07-05T08:46:47.199Z,8904
2017-07-05T08:47:27.775Z,8140
2017-07-05T08:48:08.356Z,7492
2017-07-05T08:48:48.923Z,7888
2017-07-05T08:49:29.514Z,7436
2017-07-05T08:50:10.084Z,7564
2017-07-05T08:50:50.650Z,8624
2017-07-05T08:51:31.227Z,8936
2017-07-05T08:52:11.808Z,9376
2017-07-05T08:52:52.371Z,9856
2017-07-05T08:53:32.939Z,9944
2017-07-05T08:54:13.510Z,10868
2017-07-05T08:54:54.253Z,11964
2017-07-05T08:55:35.108Z,12844
2017-07-05T08:56:15.627Z,13348
2017-07-05T08:56:56.208Z,13128
2017-07-05T08:57:36.782Z,12432
2017-07-05T08:58:17.359Z,12688
2017-07-05T08:58:58.411Z,15424
2017-07-05T08:59:39.009Z,17344
2017-07-05T09:00:19.823Z,15616
2017-07-05T09:01:00.399Z,13532
2017-07-05T09:01:40.985Z,13292
2017-07-05T09:02:21.558Z,13456
2017-07-05T09:03:02.209Z,14252
2017-07-05T09:03:42.788Z,15108
2017-07-05T09:04:23.358Z,13668
2017-07-05T09:05:03.956Z,12752
2017-07-05T09:05:44.545Z,12080
2017-07-05T09:06:25.177Z,11316
2017-07-05T09:07:05.763Z,10704
2017-07-05T09:07:46.347Z,10272
2017-07-05T09:08:26.964Z,10124
2017-07-05T09:09:07.535Z,9984
2017-07-05T09:09:48.475Z,10628
2017-07-05T09:10:29.040Z,12384
2017-07-05T09:11:09.640Z,12508
2017-07-05T09:13:27.811Z,10488
2017-07-05T09:14:08.517Z,10984
2017-07-05T09:14:49.083Z,11996
2017-07-05T09:15:29.675Z,13136
2017-07-05T09:16:10.247Z,13064
2017-07-05T09:16:50.840Z,13020
2017-07-05T09:17:31.427Z,11988
2017-07-05T09:18:12.014Z,11268
2017-07-05T09:18:52.617Z,11088
2017-07-05T09:19:33.201Z,10956
2017-07-05T09:20:13.774Z,10824
2017-07-05T09:20:54.365Z,10944
2017-07-05T09:21:34.925Z,11304
2017-07-05T09:22:15.499Z,11428
2017-07-05T09:22:56.072Z,11316
2017-07-05T09:23:36.702Z,11328
2017-07-05T09:24:17.274Z,11016
2017-07-05T09:24:57.862Z,10676
2017-07-05T09:25:38.417Z,10360